sensor_id;sensor_type;location;lat;lon;timestamp;temperature;humidity
6110;DHT22;3085;49.444;11.054;2023-11-19T00:01:25;6.40;99.90
6110;DHT22;3085;49.444;11.054;2023-11-19T00:03:53;6.30;99.90
6110;DHT22;3085;49.444;11.054;2023-11-19T00:06:20;6.20;99.90
6110;DHT22;3085;49.444;11.054;2023-11-19T00:08:46;6.40;99.90
6110;DHT22;3085;49.444;11.054;2023-11-19T00:11:13;6.40;99.90
6110;DHT22;3085;49.444;11.054;2023-11-19T00:13:41;6.30;99.90
6110;DHT22;3085;49.444;11.054;2023-11-19T00:16:08;6.40;99.90
6110;DHT22;3085;49.444;11.054;2023-11-19T00:18:35;6.30;99.90
6110;DHT22;3085;49.444;11.054;2023-11-19T00:21:04;6.30;99.90
6110;DHT22;3085;49.444;11.054;2023-11-19T00:23:32;6.30;99.90
6110;DHT22;3085;49.444;11.054;2023-11-19T00:25:58;6.40;99.90
6110;DHT22;3085;49.444;11.054;2023-11-19T00:28:25;6.50;99.90
6110;DHT22;3085;49.444;11.054;2023-11-19T00:30:52;6.50;99.90
6110;DHT22;3085;49.444;11.054;2023-11-19T00:33:19;6.50;99.90
6110;DHT22;3085;49.444;11.054;2023-11-19T00:35:46;6.40;99.90
6110;DHT22;3085;49.444;11.054;2023-11-19T00:38:15;6.50;99.90
6110;DHT22;3085;49.444;11.054;2023-11-19T00:40:42;6.50;99.90
6110;DHT22;3085;49.444;11.054;2023-11-19T00:43:09;6.50;99.90
6110;DHT22;3085;49.444;11.054;2023-11-19T00:45:36;6.50;99.90
6110;DHT22;3085;49.444;11.054;2023-11-19T00:48:04;6.50;99.90
6110;DHT22;3085;49.444;11.054;2023-11-19T00:50:30;6.50;99.90
6110;DHT22;3085;49.444;11.054;2023-11-19T00:52:58;6.50;99.90
6110;DHT22;3085;49.444;11.054;2023-11-19T00:55:26;6.50;99.90
6110;DHT22;3085;49.444;11.054;2023-11-19T00:57:53;6.50;99.90
6110;DHT22;3085;49.444;11.054;2023-11-19T01:00:20;7.00;99.90
6110;DHT22;3085;49.444;11.054;2023-11-19T01:02:49;6.50;99.90
6110;DHT22;3085;49.444;11.054;2023-11-19T01:05:16;6.50;99.90
6110;DHT22;3085;49.444;11.054;2023-11-19T01:07:47;7.00;99.90
6110;DHT22;3085;49.444;11.054;2023-11-19T01:10:14;6.50;99.90
6110;DHT22;3085;49.444;11.054;2023-11-19T01:12:42;6.60;99.90
6110;DHT22;3085;49.444;11.054;2023-11-19T01:15:09;6.60;99.90
6110;DHT22;3085;49.444;11.054;2023-11-19T01:17:36;6.60;99.90
6110;DHT22;3085;49.444;11.054;2023-11-19T01:20:04;6.60;99.90
6110;DHT22;3085;49.444;11.054;2023-11-19T01:22:32;6.60;99.90
6110;DHT22;3085;49.444;11.054;2023-11-19T01:24:59;6.60;99.90
6110;DHT22;3085;49.444;11.054;2023-11-19T01:27:25;6.70;99.90
6110;DHT22;3085;49.444;11.054;2023-11-19T01:29:54;6.70;99.90
6110;DHT22;3085;49.444;11.054;2023-11-19T01:32:21;6.70;99.90
6110;DHT22;3085;49.444;11.054;2023-11-19T01:34:49;6.70;99.90
6110;DHT22;3085;49.444;11.054;2023-11-19T01:37:16;6.70;99.90
6110;DHT22;3085;49.444;11.054;2023-11-19T01:39:43;6.70;99.90
6110;DHT22;3085;49.444;11.054;2023-11-19T01:42:10;6.70;99.90
6110;DHT22;3085;49.444;11.054;2023-11-19T01:44:37;6.90;99.90
6110;DHT22;3085;49.444;11.054;2023-11-19T01:47:06;6.70;99.90
6110;DHT22;3085;49.444;11.054;2023-11-19T01:49:33;6.70;99.90
6110;DHT22;3085;49.444;11.054;2023-11-19T01:52:00;6.80;99.90
6110;DHT22;3085;49.444;11.054;2023-11-19T01:54:27;6.80;99.90
6110;DHT22;3085;49.444;11.054;2023-11-19T01:56:55;6.80;99.90
6110;DHT22;3085;49.444;11.054;2023-11-19T01:59:24;6.70;99.90
6110;DHT22;3085;49.444;11.054;2023-11-19T02:01:52;6.70;99.90
6110;DHT22;3085;49.444;11.054;2023-11-19T02:04:21;6.80;99.90
6110;DHT22;3085;49.444;11.054;2023-11-19T02:06:48;6.80;99.90
6110;DHT22;3085;49.444;11.054;2023-11-19T02:09:18;6.80;99.90
6110;DHT22;3085;49.444;11.054;2023-11-19T02:11:46;6.70;99.90
6110;DHT22;3085;49.444;11.054;2023-11-19T02:14:14;6.70;99.90
6110;DHT22;3085;49.444;11.054;2023-11-19T02:16:41;6.80;99.90
6110;DHT22;3085;49.444;11.054;2023-11-19T02:19:08;6.80;99.90
6110;DHT22;3085;49.444;11.054;2023-11-19T02:21:37;6.80;99.90
6110;DHT22;3085;49.444;11.054;2023-11-19T02:24:06;6.90;99.90
6110;DHT22;3085;49.444;11.054;2023-11-19T02:26:38;6.90;99.90
6110;DHT22;3085;49.444;11.054;2023-11-19T02:29:07;6.80;99.90
6110;DHT22;3085;49.444;11.054;2023-11-19T02:31:34;6.80;99.90
6110;DHT22;3085;49.444;11.054;2023-11-19T02:34:01;6.80;99.90
6110;DHT22;3085;49.444;11.054;2023-11-19T02:36:28;6.90;99.90
6110;DHT22;3085;49.444;11.054;2023-11-19T02:38:55;6.90;99.90
6110;DHT22;3085;49.444;11.054;2023-11-19T02:41:22;6.90;99.90
6110;DHT22;3085;49.444;11.054;2023-11-19T02:43:49;6.80;99.90
6110;DHT22;3085;49.444;11.054;2023-11-19T02:46:18;6.80;99.90
6110;DHT22;3085;49.444;11.054;2023-11-19T02:48:44;6.90;99.90
6110;DHT22;3085;49.444;11.054;2023-11-19T02:51:12;6.90;99.90
6110;DHT22;3085;49.444;11.054;2023-11-19T02:53:39;6.90;99.90
6110;DHT22;3085;49.444;11.054;2023-11-19T02:56:06;6.90;99.90
6110;DHT22;3085;49.444;11.054;2023-11-19T02:58:43;6.90;99.90
6110;DHT22;3085;49.444;11.054;2023-11-19T03:01:10;7.00;99.90
6110;DHT22;3085;49.444;11.054;2023-11-19T03:03:46;7.00;99.90
6110;DHT22;3085;49.444;11.054;2023-11-19T03:06:15;7.90;99.90
6110;DHT22;3085;49.444;11.054;2023-11-19T03:08:41;7.30;99.90
6110;DHT22;3085;49.444;11.054;2023-11-19T03:11:08;7.20;99.90
6110;DHT22;3085;49.444;11.054;2023-11-19T03:13:35;7.00;99.90
6110;DHT22;3085;49.444;11.054;2023-11-19T03:16:02;7.00;99.90
6110;DHT22;3085;49.444;11.054;2023-11-19T03:18:28;7.00;99.90
6110;DHT22;3085;49.444;11.054;2023-11-19T03:20:57;7.10;99.90
6110;DHT22;3085;49.444;11.054;2023-11-19T03:23:24;7.00;99.90
6110;DHT22;3085;49.444;11.054;2023-11-19T03:25:53;7.10;99.90
6110;DHT22;3085;49.444;11.054;2023-11-19T03:28:20;7.10;99.90
6110;DHT22;3085;49.444;11.054;2023-11-19T03:30:46;7.10;99.90
6110;DHT22;3085;49.444;11.054;2023-11-19T03:33:13;7.10;99.90
6110;DHT22;3085;49.444;11.054;2023-11-19T03:35:40;7.10;99.90
6110;DHT22;3085;49.444;11.054;2023-11-19T03:38:08;7.10;99.90
6110;DHT22;3085;49.444;11.054;2023-11-19T03:40:34;7.10;99.90
6110;DHT22;3085;49.444;11.054;2023-11-19T03:43:01;7.10;99.90
6110;DHT22;3085;49.444;11.054;2023-11-19T03:45:29;7.10;99.90
6110;DHT22;3085;49.444;11.054;2023-11-19T03:47:56;7.10;99.90
6110;DHT22;3085;49.444;11.054;2023-11-19T03:50:23;7.20;99.90
6110;DHT22;3085;49.444;11.054;2023-11-19T03:52:52;7.10;99.90
6110;DHT22;3085;49.444;11.054;2023-11-19T03:55:20;7.10;99.90
6110;DHT22;3085;49.444;11.054;2023-11-19T03:57:47;7.10;99.90
6110;DHT22;3085;49.444;11.054;2023-11-19T04:00:15;7.10;99.90
6110;DHT22;3085;49.444;11.054;2023-11-19T04:02:42;7.10;99.90
6110;DHT22;3085;49.444;11.054;2023-11-19T04:05:08;7.10;99.90
6110;DHT22;3085;49.444;11.054;2023-11-19T04:07:36;7.10;99.90
6110;DHT22;3085;49.444;11.054;2023-11-19T04:10:03;7.70;99.90
6110;DHT22;3085;49.444;11.054;2023-11-19T04:12:32;7.10;99.90
6110;DHT22;3085;49.444;11.054;2023-11-19T04:14:59;7.20;99.90
6110;DHT22;3085;49.444;11.054;2023-11-19T04:17:25;7.20;99.90
6110;DHT22;3085;49.444;11.054;2023-11-19T04:19:52;7.20;99.90
6110;DHT22;3085;49.444;11.054;2023-11-19T04:22:19;7.20;99.90
6110;DHT22;3085;49.444;11.054;2023-11-19T04:24:46;7.20;99.90
6110;DHT22;3085;49.444;11.054;2023-11-19T04:27:14;7.20;99.90
6110;DHT22;3085;49.444;11.054;2023-11-19T04:29:42;7.20;99.90
6110;DHT22;3085;49.444;11.054;2023-11-19T04:32:09;7.20;99.90
6110;DHT22;3085;49.444;11.054;2023-11-19T04:34:35;7.30;99.90
6110;DHT22;3085;49.444;11.054;2023-11-19T04:37:03;7.30;99.90
6110;DHT22;3085;49.444;11.054;2023-11-19T04:39:30;7.30;99.90
6110;DHT22;3085;49.444;11.054;2023-11-19T04:41:57;7.30;99.90
6110;DHT22;3085;49.444;11.054;2023-11-19T04:44:24;7.30;99.90
6110;DHT22;3085;49.444;11.054;2023-11-19T04:46:52;7.40;99.90
6110;DHT22;3085;49.444;11.054;2023-11-19T04:49:19;7.60;99.90
6110;DHT22;3085;49.444;11.054;2023-11-19T04:51:46;7.40;99.90
6110;DHT22;3085;49.444;11.054;2023-11-19T04:54:13;7.80;99.90
6110;DHT22;3085;49.444;11.054;2023-11-19T04:56:40;7.40;99.90
6110;DHT22;3085;49.444;11.054;2023-11-19T04:59:07;7.40;99.90
6110;DHT22;3085;49.444;11.054;2023-11-19T05:01:34;7.70;99.90
6110;DHT22;3085;49.444;11.054;2023-11-19T05:04:02;7.50;99.90
6110;DHT22;3085;49.444;11.054;2023-11-19T05:06:29;7.50;99.90
6110;DHT22;3085;49.444;11.054;2023-11-19T05:08:55;7.50;99.90
6110;DHT22;3085;49.444;11.054;2023-11-19T05:11:22;7.70;99.90
6110;DHT22;3085;49.444;11.054;2023-11-19T05:13:49;7.60;99.90
6110;DHT22;3085;49.444;11.054;2023-11-19T05:16:16;7.70;99.90
6110;DHT22;3085;49.444;11.054;2023-11-19T05:18:44;7.60;99.90
6110;DHT22;3085;49.444;11.054;2023-11-19T05:21:12;7.60;99.90
6110;DHT22;3085;49.444;11.054;2023-11-19T05:23:39;7.60;99.90
6110;DHT22;3085;49.444;11.054;2023-11-19T05:26:07;7.60;99.90
6110;DHT22;3085;49.444;11.054;2023-11-19T05:28:34;7.70;99.90
6110;DHT22;3085;49.444;11.054;2023-11-19T05:31:01;7.70;99.90
6110;DHT22;3085;49.444;11.054;2023-11-19T05:33:27;7.70;99.90
6110;DHT22;3085;49.444;11.054;2023-11-19T05:35:54;7.80;99.90
6110;DHT22;3085;49.444;11.054;2023-11-19T05:38:23;7.80;99.90
6110;DHT22;3085;49.444;11.054;2023-11-19T05:40:50;7.80;99.90
6110;DHT22;3085;49.444;11.054;2023-11-19T05:43:17;8.00;99.90
6110;DHT22;3085;49.444;11.054;2023-11-19T05:45:44;7.80;99.90
6110;DHT22;3085;49.444;11.054;2023-11-19T05:48:11;7.80;99.90
6110;DHT22;3085;49.444;11.054;2023-11-19T05:50:38;8.20;99.90
6110;DHT22;3085;49.444;11.054;2023-11-19T05:53:05;7.80;99.90
6110;DHT22;3085;49.444;11.054;2023-11-19T05:55:36;8.20;99.90
6110;DHT22;3085;49.444;11.054;2023-11-19T05:58:10;7.90;99.90
6110;DHT22;3085;49.444;11.054;2023-11-19T06:00:38;7.90;99.90
6110;DHT22;3085;49.444;11.054;2023-11-19T06:03:04;8.00;99.90
6110;DHT22;3085;49.444;11.054;2023-11-19T06:05:31;8.00;99.90
6110;DHT22;3085;49.444;11.054;2023-11-19T06:07:58;8.10;99.90
6110;DHT22;3085;49.444;11.054;2023-11-19T06:10:25;8.10;99.90
6110;DHT22;3085;49.444;11.054;2023-11-19T06:12:57;8.10;99.90
6110;DHT22;3085;49.444;11.054;2023-11-19T06:15:25;8.10;99.90
6110;DHT22;3085;49.444;11.054;2023-11-19T06:17:52;8.20;99.90
6110;DHT22;3085;49.444;11.054;2023-11-19T06:20:20;9.00;99.90
6110;DHT22;3085;49.444;11.054;2023-11-19T06:22:47;8.20;99.90
6110;DHT22;3085;49.444;11.054;2023-11-19T06:25:14;8.20;99.90
6110;DHT22;3085;49.444;11.054;2023-11-19T06:27:41;8.20;99.90
6110;DHT22;3085;49.444;11.054;2023-11-19T06:30:10;8.30;99.90
6110;DHT22;3085;49.444;11.054;2023-11-19T06:32:37;8.30;99.90
6110;DHT22;3085;49.444;11.054;2023-11-19T06:35:04;8.30;99.90
6110;DHT22;3085;49.444;11.054;2023-11-19T06:37:31;8.30;99.90
6110;DHT22;3085;49.444;11.054;2023-11-19T06:39:58;8.60;99.90
6110;DHT22;3085;49.444;11.054;2023-11-19T06:42:25;8.30;99.90
6110;DHT22;3085;49.444;11.054;2023-11-19T06:44:52;8.40;99.90
6110;DHT22;3085;49.444;11.054;2023-11-19T06:47:20;8.40;99.90
6110;DHT22;3085;49.444;11.054;2023-11-19T06:49:47;8.40;99.90
6110;DHT22;3085;49.444;11.054;2023-11-19T06:52:13;8.40;99.90
6110;DHT22;3085;49.444;11.054;2023-11-19T06:54:40;8.40;99.90
6110;DHT22;3085;49.444;11.054;2023-11-19T06:57:07;8.50;99.90
6110;DHT22;3085;49.444;11.054;2023-11-19T06:59:34;8.50;99.90
6110;DHT22;3085;49.444;11.054;2023-11-19T07:02:01;8.50;99.90
6110;DHT22;3085;49.444;11.054;2023-11-19T07:04:29;8.60;99.90
6110;DHT22;3085;49.444;11.054;2023-11-19T07:06:56;8.60;99.90
6110;DHT22;3085;49.444;11.054;2023-11-19T07:09:23;8.60;99.90
6110;DHT22;3085;49.444;11.054;2023-11-19T07:11:50;8.70;99.90
6110;DHT22;3085;49.444;11.054;2023-11-19T07:14:17;8.70;99.90
6110;DHT22;3085;49.444;11.054;2023-11-19T07:16:44;8.70;99.90
6110;DHT22;3085;49.444;11.054;2023-11-19T07:19:12;9.40;99.90
6110;DHT22;3085;49.444;11.054;2023-11-19T07:21:42;8.70;99.90
6110;DHT22;3085;49.444;11.054;2023-11-19T07:24:10;8.80;99.90
6110;DHT22;3085;49.444;11.054;2023-11-19T07:26:42;8.80;99.90
6110;DHT22;3085;49.444;11.054;2023-11-19T07:29:09;8.80;99.90
6110;DHT22;3085;49.444;11.054;2023-11-19T07:31:36;8.90;99.90
6110;DHT22;3085;49.444;11.054;2023-11-19T07:34:03;8.90;99.90
6110;DHT22;3085;49.444;11.054;2023-11-19T07:36:30;9.00;99.90
6110;DHT22;3085;49.444;11.054;2023-11-19T07:38:59;9.00;99.90
6110;DHT22;3085;49.444;11.054;2023-11-19T07:41:26;9.00;99.90
6110;DHT22;3085;49.444;11.054;2023-11-19T07:43:53;9.00;99.90
6110;DHT22;3085;49.444;11.054;2023-11-19T07:46:20;9.30;99.90
6110;DHT22;3085;49.444;11.054;2023-11-19T07:48:47;9.00;99.90
6110;DHT22;3085;49.444;11.054;2023-11-19T07:51:14;9.10;99.90
6110;DHT22;3085;49.444;11.054;2023-11-19T07:53:41;9.10;99.90
6110;DHT22;3085;49.444;11.054;2023-11-19T07:56:10;9.20;99.90
6110;DHT22;3085;49.444;11.054;2023-11-19T07:58:37;9.30;99.90
6110;DHT22;3085;49.444;11.054;2023-11-19T08:01:05;9.40;99.90
6110;DHT22;3085;49.444;11.054;2023-11-19T08:03:31;9.50;99.90
6110;DHT22;3085;49.444;11.054;2023-11-19T08:05:59;9.70;99.90
6110;DHT22;3085;49.444;11.054;2023-11-19T08:08:26;9.80;99.90
6110;DHT22;3085;49.444;11.054;2023-11-19T08:10:55;9.90;99.90
6110;DHT22;3085;49.444;11.054;2023-11-19T08:13:23;9.90;99.90
6110;DHT22;3085;49.444;11.054;2023-11-19T08:15:50;9.90;99.90
6110;DHT22;3085;49.444;11.054;2023-11-19T08:18:17;10.00;99.90
6110;DHT22;3085;49.444;11.054;2023-11-19T08:20:45;10.10;99.90
6110;DHT22;3085;49.444;11.054;2023-11-19T08:23:14;10.10;99.90
6110;DHT22;3085;49.444;11.054;2023-11-19T08:25:41;10.20;99.90
6110;DHT22;3085;49.444;11.054;2023-11-19T08:28:08;10.20;99.90
6110;DHT22;3085;49.444;11.054;2023-11-19T08:30:36;10.20;99.90
6110;DHT22;3085;49.444;11.054;2023-11-19T08:33:03;10.20;99.90
6110;DHT22;3085;49.444;11.054;2023-11-19T08:35:31;10.30;99.90
6110;DHT22;3085;49.444;11.054;2023-11-19T08:37:58;10.30;99.90
6110;DHT22;3085;49.444;11.054;2023-11-19T08:40:25;10.40;99.90
6110;DHT22;3085;49.444;11.054;2023-11-19T08:42:52;11.00;99.90
6110;DHT22;3085;49.444;11.054;2023-11-19T08:45:19;10.70;99.90
6110;DHT22;3085;49.444;11.054;2023-11-19T08:47:47;10.50;99.90
6110;DHT22;3085;49.444;11.054;2023-11-19T08:50:14;10.60;99.90
6110;DHT22;3085;49.444;11.054;2023-11-19T08:52:41;10.70;99.90
6110;DHT22;3085;49.444;11.054;2023-11-19T08:55:08;10.70;99.90
6110;DHT22;3085;49.444;11.054;2023-11-19T08:57:35;10.70;99.90
6110;DHT22;3085;49.444;11.054;2023-11-19T09:00:03;10.80;99.90
6110;DHT22;3085;49.444;11.054;2023-11-19T09:02:33;10.80;99.90
6110;DHT22;3085;49.444;11.054;2023-11-19T09:05:03;10.90;99.90
6110;DHT22;3085;49.444;11.054;2023-11-19T09:07:31;11.00;99.90
6110;DHT22;3085;49.444;11.054;2023-11-19T09:09:58;12.20;99.90
6110;DHT22;3085;49.444;11.054;2023-11-19T09:12:25;11.10;99.90
6110;DHT22;3085;49.444;11.054;2023-11-19T09:14:52;11.30;99.90
6110;DHT22;3085;49.444;11.054;2023-11-19T09:17:19;11.40;99.90
6110;DHT22;3085;49.444;11.054;2023-11-19T09:19:46;12.30;99.90
6110;DHT22;3085;49.444;11.054;2023-11-19T09:22:14;11.50;99.90
6110;DHT22;3085;49.444;11.054;2023-11-19T09:24:41;11.50;99.90
6110;DHT22;3085;49.444;11.054;2023-11-19T09:27:12;11.60;99.90
6110;DHT22;3085;49.444;11.054;2023-11-19T09:29:39;12.20;99.90
6110;DHT22;3085;49.444;11.054;2023-11-19T09:32:06;12.30;99.90
6110;DHT22;3085;49.444;11.054;2023-11-19T09:34:33;11.80;99.90
6110;DHT22;3085;49.444;11.054;2023-11-19T09:37:00;11.90;99.90
6110;DHT22;3085;49.444;11.054;2023-11-19T09:39:28;11.90;99.90
6110;DHT22;3085;49.444;11.054;2023-11-19T09:41:55;12.00;99.90
6110;DHT22;3085;49.444;11.054;2023-11-19T09:44:23;12.10;99.90
6110;DHT22;3085;49.444;11.054;2023-11-19T09:46:50;12.10;99.90
6110;DHT22;3085;49.444;11.054;2023-11-19T09:49:21;12.30;99.90
6110;DHT22;3085;49.444;11.054;2023-11-19T09:51:48;12.00;99.90
6110;DHT22;3085;49.444;11.054;2023-11-19T09:54:15;12.00;99.90
6110;DHT22;3085;49.444;11.054;2023-11-19T09:56:43;12.10;99.90
6110;DHT22;3085;49.444;11.054;2023-11-19T09:59:10;12.10;99.90
6110;DHT22;3085;49.444;11.054;2023-11-19T10:01:38;12.10;99.90
6110;DHT22;3085;49.444;11.054;2023-11-19T10:04:05;12.20;99.90
6110;DHT22;3085;49.444;11.054;2023-11-19T10:06:33;12.20;99.90
6110;DHT22;3085;49.444;11.054;2023-11-19T10:08:59;12.20;99.90
6110;DHT22;3085;49.444;11.054;2023-11-19T10:11:26;12.20;99.90
6110;DHT22;3085;49.444;11.054;2023-11-19T10:14:02;12.10;99.90
6110;DHT22;3085;49.444;11.054;2023-11-19T10:16:30;12.20;99.90
6110;DHT22;3085;49.444;11.054;2023-11-19T10:18:58;12.20;99.90
6110;DHT22;3085;49.444;11.054;2023-11-19T10:21:25;12.20;99.90
6110;DHT22;3085;49.444;11.054;2023-11-19T10:23:54;12.30;99.90
6110;DHT22;3085;49.444;11.054;2023-11-19T10:26:22;12.20;99.90
6110;DHT22;3085;49.444;11.054;2023-11-19T10:28:50;12.20;99.90
6110;DHT22;3085;49.444;11.054;2023-11-19T10:31:19;12.20;99.90
6110;DHT22;3085;49.444;11.054;2023-11-19T10:33:48;12.20;99.90
6110;DHT22;3085;49.444;11.054;2023-11-19T10:36:15;12.20;99.90
6110;DHT22;3085;49.444;11.054;2023-11-19T10:38:52;12.20;99.90
6110;DHT22;3085;49.444;11.054;2023-11-19T10:41:27;12.10;99.90
6110;DHT22;3085;49.444;11.054;2023-11-19T10:43:54;12.20;99.90
6110;DHT22;3085;49.444;11.054;2023-11-19T10:46:22;11.90;99.90
6110;DHT22;3085;49.444;11.054;2023-11-19T10:48:56;11.90;99.90
6110;DHT22;3085;49.444;11.054;2023-11-19T10:51:23;11.90;99.90
6110;DHT22;3085;49.444;11.054;2023-11-19T10:54:01;12.00;99.90
6110;DHT22;3085;49.444;11.054;2023-11-19T10:56:30;12.00;99.90
6110;DHT22;3085;49.444;11.054;2023-11-19T10:59:14;12.10;99.90
6110;DHT22;3085;49.444;11.054;2023-11-19T11:01:48;12.10;99.90
6110;DHT22;3085;49.444;11.054;2023-11-19T11:04:25;12.20;99.90
6110;DHT22;3085;49.444;11.054;2023-11-19T11:06:54;12.20;99.90
6110;DHT22;3085;49.444;11.054;2023-11-19T11:09:22;12.30;99.90
6110;DHT22;3085;49.444;11.054;2023-11-19T11:11:50;12.40;99.90
6110;DHT22;3085;49.444;11.054;2023-11-19T11:14:20;12.50;99.90
6110;DHT22;3085;49.444;11.054;2023-11-19T11:16:49;12.50;99.90
6110;DHT22;3085;49.444;11.054;2023-11-19T11:19:16;12.60;99.90
6110;DHT22;3085;49.444;11.054;2023-11-19T11:21:50;12.60;99.90
6110;DHT22;3085;49.444;11.054;2023-11-19T11:24:30;12.60;99.90
6110;DHT22;3085;49.444;11.054;2023-11-19T11:30:13;12.70;99.90
6110;DHT22;3085;49.444;11.054;2023-11-19T11:32:54;12.70;99.90
6110;DHT22;3085;49.444;11.054;2023-11-19T11:35:30;12.70;99.90
6110;DHT22;3085;49.444;11.054;2023-11-19T11:38:04;12.80;99.90
6110;DHT22;3085;49.444;11.054;2023-11-19T11:40:33;12.00;99.90
6110;DHT22;3085;49.444;11.054;2023-11-19T11:42:59;13.00;99.90
6110;DHT22;3085;49.444;11.054;2023-11-19T11:45:36;13.00;99.90
6110;DHT22;3085;49.444;11.054;2023-11-19T11:48:15;13.20;99.90
6110;DHT22;3085;49.444;11.054;2023-11-19T11:50:50;13.20;99.90
6110;DHT22;3085;49.444;11.054;2023-11-19T11:53:18;13.20;99.90
6110;DHT22;3085;49.444;11.054;2023-11-19T11:55:55;13.30;99.90
6110;DHT22;3085;49.444;11.054;2023-11-19T11:58:35;13.30;99.90
6110;DHT22;3085;49.444;11.054;2023-11-19T12:01:03;13.20;99.90
6110;DHT22;3085;49.444;11.054;2023-11-19T12:03:33;13.20;99.90
6110;DHT22;3085;49.444;11.054;2023-11-19T12:06:00;13.20;99.90
6110;DHT22;3085;49.444;11.054;2023-11-19T12:08:29;13.20;99.90
6110;DHT22;3085;49.444;11.054;2023-11-19T12:10:58;13.20;99.90
6110;DHT22;3085;49.444;11.054;2023-11-19T12:13:29;13.20;99.90
6110;DHT22;3085;49.444;11.054;2023-11-19T12:16:07;13.20;99.90
6110;DHT22;3085;49.444;11.054;2023-11-19T12:18:35;13.30;99.90
6110;DHT22;3085;49.444;11.054;2023-11-19T12:21:02;13.30;99.90
6110;DHT22;3085;49.444;11.054;2023-11-19T12:23:31;13.20;99.90
6110;DHT22;3085;49.444;11.054;2023-11-19T12:26:00;13.50;99.90
6110;DHT22;3085;49.444;11.054;2023-11-19T12:28:27;13.40;99.90
6110;DHT22;3085;49.444;11.054;2023-11-19T12:30:54;13.50;99.90
6110;DHT22;3085;49.444;11.054;2023-11-19T12:33:36;13.50;99.90
6110;DHT22;3085;49.444;11.054;2023-11-19T12:36:15;13.60;99.90
6110;DHT22;3085;49.444;11.054;2023-11-19T12:38:43;13.60;99.90
6110;DHT22;3085;49.444;11.054;2023-11-19T12:41:11;13.70;99.90
6110;DHT22;3085;49.444;11.054;2023-11-19T12:43:38;13.70;99.90
6110;DHT22;3085;49.444;11.054;2023-11-19T12:46:17;13.70;99.90
6110;DHT22;3085;49.444;11.054;2023-11-19T12:48:48;13.70;99.90
6110;DHT22;3085;49.444;11.054;2023-11-19T12:51:20;13.70;99.90
6110;DHT22;3085;49.444;11.054;2023-11-19T12:53:48;13.70;99.90
6110;DHT22;3085;49.444;11.054;2023-11-19T12:56:15;13.70;99.90
6110;DHT22;3085;49.444;11.054;2023-11-19T12:58:42;13.60;99.90
6110;DHT22;3085;49.444;11.054;2023-11-19T13:01:09;13.60;99.90
6110;DHT22;3085;49.444;11.054;2023-11-19T13:03:37;13.70;99.90
6110;DHT22;3085;49.444;11.054;2023-11-19T13:06:07;13.70;99.90
6110;DHT22;3085;49.444;11.054;2023-11-19T13:08:37;13.80;99.90
6110;DHT22;3085;49.444;11.054;2023-11-19T13:11:05;13.80;99.90
6110;DHT22;3085;49.444;11.054;2023-11-19T13:13:33;13.80;99.90
6110;DHT22;3085;49.444;11.054;2023-11-19T13:16:04;13.80;99.90
6110;DHT22;3085;49.444;11.054;2023-11-19T13:18:31;14.50;99.90
6110;DHT22;3085;49.444;11.054;2023-11-19T13:20:58;13.90;99.90
6110;DHT22;3085;49.444;11.054;2023-11-19T13:23:26;14.10;99.90
6110;DHT22;3085;49.444;11.054;2023-11-19T13:25:53;13.90;99.90
6110;DHT22;3085;49.444;11.054;2023-11-19T13:28:20;14.00;99.90
6110;DHT22;3085;49.444;11.054;2023-11-19T13:30:48;14.00;99.90
6110;DHT22;3085;49.444;11.054;2023-11-19T13:33:15;14.00;99.90
6110;DHT22;3085;49.444;11.054;2023-11-19T13:35:41;14.10;99.90
6110;DHT22;3085;49.444;11.054;2023-11-19T13:38:08;14.10;99.90
6110;DHT22;3085;49.444;11.054;2023-11-19T13:40:36;14.10;99.90
6110;DHT22;3085;49.444;11.054;2023-11-19T13:43:04;14.30;99.90
6110;DHT22;3085;49.444;11.054;2023-11-19T13:45:31;14.70;99.90
6110;DHT22;3085;49.444;11.054;2023-11-19T13:47:58;14.40;99.90
6110;DHT22;3085;49.444;11.054;2023-11-19T13:50:25;14.40;99.90
6110;DHT22;3085;49.444;11.054;2023-11-19T13:52:51;14.60;99.90
6110;DHT22;3085;49.444;11.054;2023-11-19T13:55:18;15.60;99.90
6110;DHT22;3085;49.444;11.054;2023-11-19T13:57:46;15.00;99.90
6110;DHT22;3085;49.444;11.054;2023-11-19T14:00:15;14.90;99.90
6110;DHT22;3085;49.444;11.054;2023-11-19T14:02:54;14.70;99.90
6110;DHT22;3085;49.444;11.054;2023-11-19T14:05:22;15.00;99.90
6110;DHT22;3085;49.444;11.054;2023-11-19T14:07:48;15.40;99.90
6110;DHT22;3085;49.444;11.054;2023-11-19T14:10:17;15.80;99.90
6110;DHT22;3085;49.444;11.054;2023-11-19T14:12:44;15.80;99.90
6110;DHT22;3085;49.444;11.054;2023-11-19T14:15:12;15.70;99.90
6110;DHT22;3085;49.444;11.054;2023-11-19T14:17:39;15.30;99.90
6110;DHT22;3085;49.444;11.054;2023-11-19T14:20:07;15.10;99.90
6110;DHT22;3085;49.444;11.054;2023-11-19T14:22:40;14.90;99.90
6110;DHT22;3085;49.444;11.054;2023-11-19T14:25:08;14.20;99.90
6110;DHT22;3085;49.444;11.054;2023-11-19T14:27:36;14.20;99.90
6110;DHT22;3085;49.444;11.054;2023-11-19T14:30:05;14.00;99.90
6110;DHT22;3085;49.444;11.054;2023-11-19T14:32:33;13.90;99.90
6110;DHT22;3085;49.444;11.054;2023-11-19T14:35:00;13.80;99.90
6110;DHT22;3085;49.444;11.054;2023-11-19T14:37:27;13.70;99.90
6110;DHT22;3085;49.444;11.054;2023-11-19T14:39:53;13.70;99.90
6110;DHT22;3085;49.444;11.054;2023-11-19T14:42:20;13.70;99.90
6110;DHT22;3085;49.444;11.054;2023-11-19T14:44:48;13.70;99.90
6110;DHT22;3085;49.444;11.054;2023-11-19T14:47:15;13.70;99.90
6110;DHT22;3085;49.444;11.054;2023-11-19T14:49:43;13.60;99.90
6110;DHT22;3085;49.444;11.054;2023-11-19T14:52:10;13.60;99.90
6110;DHT22;3085;49.444;11.054;2023-11-19T14:54:37;13.50;99.90
6110;DHT22;3085;49.444;11.054;2023-11-19T14:57:04;13.50;99.90
6110;DHT22;3085;49.444;11.054;2023-11-19T14:59:32;13.50;99.90
6110;DHT22;3085;49.444;11.054;2023-11-19T15:01:59;13.50;99.90
6110;DHT22;3085;49.444;11.054;2023-11-19T15:04:26;13.50;99.90
6110;DHT22;3085;49.444;11.054;2023-11-19T15:06:56;13.40;99.90
6110;DHT22;3085;49.444;11.054;2023-11-19T15:09:23;13.40;99.90
6110;DHT22;3085;49.444;11.054;2023-11-19T15:11:50;13.40;99.90
6110;DHT22;3085;49.444;11.054;2023-11-19T15:14:17;13.30;99.90
6110;DHT22;3085;49.444;11.054;2023-11-19T15:16:46;13.20;99.90
6110;DHT22;3085;49.444;11.054;2023-11-19T15:19:13;13.40;99.90
6110;DHT22;3085;49.444;11.054;2023-11-19T15:21:40;13.20;99.90
6110;DHT22;3085;49.444;11.054;2023-11-19T15:24:09;13.20;99.90
6110;DHT22;3085;49.444;11.054;2023-11-19T15:26:37;13.10;99.90
6110;DHT22;3085;49.444;11.054;2023-11-19T15:29:04;13.10;99.90
6110;DHT22;3085;49.444;11.054;2023-11-19T15:31:31;13.10;99.90
6110;DHT22;3085;49.444;11.054;2023-11-19T15:33:58;13.00;99.90
6110;DHT22;3085;49.444;11.054;2023-11-19T15:36:25;13.00;99.90
6110;DHT22;3085;49.444;11.054;2023-11-19T15:38:51;13.00;99.90
6110;DHT22;3085;49.444;11.054;2023-11-19T15:41:20;13.00;99.90
6110;DHT22;3085;49.444;11.054;2023-11-19T15:43:46;12.90;99.90
6110;DHT22;3085;49.444;11.054;2023-11-19T15:46:13;12.90;99.90
6110;DHT22;3085;49.444;11.054;2023-11-19T15:48:41;13.00;99.90
6110;DHT22;3085;49.444;11.054;2023-11-19T15:51:08;12.90;99.90
6110;DHT22;3085;49.444;11.054;2023-11-19T15:53:35;12.90;99.90
6110;DHT22;3085;49.444;11.054;2023-11-19T15:56:05;12.90;99.90
6110;DHT22;3085;49.444;11.054;2023-11-19T15:58:40;12.80;99.90
6110;DHT22;3085;49.444;11.054;2023-11-19T16:01:07;12.90;99.90
6110;DHT22;3085;49.444;11.054;2023-11-19T16:03:34;12.80;99.90